Airfield :
LOGIN :

Register | Disclaimer

   EN    FR    IT 

 










Legend :    VFR   Marginal VFR   IFR   Intensive IFR   Very Intensive IFR
Visi :
Ceiling :
>= 8 km
>= 3000ft
5 to 8 km
1000 to 3000 ft
1500m to 5 km
500 to 1000 ft
800 to 1500m
200 to 500 ft
< 800m
< 200 ft
Symbols :   Thunderstorms  Fog  Heavy snow  Heavy precipitations  Wind > 20 kt
SIGMETs :     Misc.  Thunderstorms  Icing  Turbulence  Mountain Waves  Volcanic Ashes







- Airport Elevation : 160 ft
- IATA code : FMO


EDDG - Münster Osnabrück Int.

CURRENT METAR :
  • 241220Z VRB08KT CAVOK 24/09 Q1001 NOSIG

EXPIRED METARs :
  • 241150Z 15007KT 080V210 CAVOK 24/10 Q1001 NOSIG
  • 241120Z 13009KT 080V160 CAVOK 23/10 Q1001 NOSIG
  • 241050Z 16007KT 100V200 CAVOK 22/11 Q1001 NOSIG
  • 241020Z 15008KT CAVOK 21/10 Q1002 NOSIG
  • 240950Z 15009KT 100V190 CAVOK 21/10 Q1001 NOSIG
  • 240920Z 14008KT 110V180 CAVOK 20/10 Q1001 NOSIG

TAF TAF EDDG
Valid from the 24 at 12:00 until the 25 at 12:00 UTC


241100Z 2412/2512 15008KT CAVOK
PROB30
TEMPO 2416/2420 18015G35KT TSRA BKN020CB
TEMPO 2420/2423 21007KT RA
No reported NOTAMs for that airfield.



MET'MAP, your aeronautical weather chart ! - Copyright ORBIFLY December 2007 - Disclaimer

ORBIFLY MET'MAP TEAM :

Programming & Development : Alexandra Zaïnal
Concept & Development : Baudouin d'Aumeries
Co-Development & Prog : Marc-Olivier Méhu
Technical & hardware support : Manuel Goepfert

Contact : metmap@orbifly.com




SOURCES & CREDITS :

   NOAA